Time;durP1;ratioP1;P1;durP2;ratioP2;P2;SDS_P1;SDS_P2;PMS_P1;PMS_P2;Temp;Humidity;BMP_temperature;BMP_pressure;BME280_temperature;BME280_humidity;BME280_pressure;Samples;Min_cycle;Max_cycle;Signal;HPM_P1;HPM_P2
2022/05/26 00:01:34;;;;;;;9.70;6.40;;;;;;;16.66;100.00;100241.69;5093518;23;21159;-69
2022/05/26 00:03:59;;;;;;;7.40;6.43;;;;;;;16.36;100.00;100220.03;4169069;29;10001234;-69
2022/05/26 00:06:25;;;;;;;8.25;6.25;;;;;;;16.69;100.00;100235.56;4856839;29;20468;-70
2022/05/26 00:08:51;;;;;;;7.07;6.10;;;;;;;16.84;100.00;100240.78;4840207;29;20421;-69
2022/05/26 00:11:19;;;;;;;6.85;6.15;;;;;;;16.69;100.00;100215.88;4857099;29;20048;-69
2022/05/26 00:13:45;;;;;;;6.88;6.00;;;;;;;16.68;100.00;100244.19;4856998;29;20041;-70
2022/05/26 00:16:12;;;;;;;7.18;6.47;;;;;;;16.67;100.00;100237.38;4839841;29;20033;-70
2022/05/26 00:18:38;;;;;;;7.85;6.45;;;;;;;16.37;100.00;100211.44;4840390;29;20124;-70
2022/05/26 00:21:04;;;;;;;8.07;5.93;;;;;;;16.60;100.00;100200.91;4839922;29;20129;-69
2022/05/26 00:23:29;;;;;;;7.10;6.40;;;;;;;16.52;100.00;100208.13;4838790;29;20033;-69
2022/05/26 00:25:55;;;;;;;6.97;5.63;;;;;;;16.68;100.00;100215.94;4839955;29;20324;-69
2022/05/26 00:28:20;;;;;;;9.88;6.60;;;;;;;16.63;100.00;100223.88;4838863;29;20033;-70
2022/05/26 00:30:46;;;;;;;8.30;6.45;;;;;;;16.59;100.00;100227.50;4855660;29;20076;-70
2022/05/26 00:33:11;;;;;;;7.43;6.25;;;;;;;16.25;100.00;100212.00;4839129;29;20663;-69
2022/05/26 00:35:40;;;;;;;9.02;5.90;;;;;;;16.25;100.00;100200.03;4838699;29;20038;-69
2022/05/26 00:38:09;;;;;;;6.72;6.03;;;;;;;16.50;100.00;100232.25;4838031;29;20104;-71
2022/05/26 00:40:36;;;;;;;8.30;6.22;;;;;;;16.53;100.00;100217.53;4856305;29;20101;-69
2022/05/26 00:43:02;;;;;;;9.48;5.78;;;;;;;16.47;100.00;100228.88;4839702;29;20030;-70
2022/05/26 00:45:34;;;;;;;9.40;6.05;;;;;;;16.40;100.00;100219.00;4856665;29;20054;-69
2022/05/26 00:48:00;;;;;;;7.25;6.00;;;;;;;16.71;100.00;100210.66;4840257;29;20552;-69
2022/05/26 00:50:31;;;;;;;9.35;5.85;;;;;;;16.04;100.00;100164.28;4856197;29;20064;-70
2022/05/26 00:53:07;;;;;;;10.07;6.90;;;;;;;15.93;100.00;100184.47;4860568;29;20124;-69
2022/05/26 00:55:43;;;;;;;8.70;6.25;;;;;;;16.19;100.00;100210.56;4843390;29;20338;-69
2022/05/26 00:58:14;;;;;;;10.23;6.53;;;;;;;16.14;100.00;100181.72;4843789;29;20037;-69
2022/05/26 01:00:40;;;;;;;9.10;6.70;;;;;;;16.14;100.00;100204.00;4843293;29;20116;-70
2022/05/26 01:03:13;;;;;;;10.50;7.05;;;;;;;15.92;100.00;100185.38;4842614;29;20209;-69
2022/05/26 01:05:46;;;;;;;7.18;6.28;;;;;;;16.20;100.00;100208.84;4843277;29;20041;-69
2022/05/26 01:08:44;;;;;;;6.90;6.18;;;;;;;16.35;100.00;100203.81;4843398;29;20405;-70
2022/05/26 01:11:09;;;;;;;7.18;6.43;;;;;;;16.28;100.00;100192.16;4838591;29;20045;-69
2022/05/26 01:13:53;;;;;;;7.35;6.28;;;;;;;16.12;100.00;100180.97;4841646;29;20038;-68
2022/05/26 01:16:47;;;;;;;8.40;6.68;;;;;;;16.31;100.00;100198.88;4840809;29;20038;-70
2022/05/26 01:19:50;;;;;;;6.97;6.38;;;;;;;15.97;100.00;100196.25;4824445;29;20486;-69
2022/05/26 01:22:40;;;;;;;7.78;6.40;;;;;;;15.80;100.00;100139.78;4823329;29;20045;-69
2022/05/26 01:25:31;;;;;;;6.78;6.07;;;;;;;16.25;100.00;100192.31;4840199;29;20493;-70
2022/05/26 01:27:59;;;;;;;8.27;6.60;;;;;;;16.22;100.00;100196.78;4840396;29;20045;-69
2022/05/26 01:30:39;;;;;;;8.10;6.75;;;;;;;16.08;100.00;100192.28;4824434;29;20129;-70
2022/05/26 01:33:28;;;;;;;7.80;6.25;;;;;;;16.19;100.00;100191.78;4840763;29;20041;-69
2022/05/26 01:35:54;;;;;;;8.00;6.80;;;;;;;16.11;100.00;100199.00;4842027;29;20052;-69
2022/05/26 01:38:22;;;;;;;7.18;6.03;;;;;;;16.14;100.00;100189.41;4859009;29;20033;-69
2022/05/26 01:41:19;;;;;;;7.47;5.43;;;;;;;16.13;100.00;100187.75;4842479;29;20037;-69
2022/05/26 01:44:29;;;;;;;7.13;5.53;;;;;;;16.41;100.00;100185.56;4842334;29;20105;-69
2022/05/26 01:46:59;;;;;;;5.85;5.35;;;;;;;16.40;100.00;100180.50;4783366;30;20112;-70
2022/05/26 01:49:44;;;;;;;6.82;5.95;;;;;;;16.21;100.00;100183.09;4768581;30;20035;-69
2022/05/26 01:52:14;;;;;;;6.70;5.68;;;;;;;16.38;100.00;100190.00;4814159;29;20041;-69
2022/05/26 01:54:40;;;;;;;6.55;5.18;;;;;;;16.52;100.00;100179.09;4842089;29;20072;-70
2022/05/26 01:57:05;;;;;;;6.72;5.68;;;;;;;16.27;100.00;100156.31;4842373;29;20093;-68
2022/05/26 01:59:34;;;;;;;8.38;6.10;;;;;;;16.33;100.00;100189.38;4842449;29;20095;-70
2022/05/26 02:02:05;;;;;;;7.22;5.32;;;;;;;16.36;100.00;100184.13;4842365;29;20049;-68
2022/05/26 02:04:40;;;;;;;6.47;5.55;;;;;;;16.41;100.00;100177.84;4840839;29;20037;-69
2022/05/26 02:07:40;;;;;;;7.50;5.80;;;;;;;16.57;100.00;100177.13;4840431;29;20500;-69
2022/05/26 02:10:12;;;;;;;6.50;5.90;;;;;;;16.39;100.00;100178.81;4809315;29;20407;-69
2022/05/26 02:12:43;;;;;;;7.88;6.20;;;;;;;16.10;100.00;100162.25;4845047;29;20041;-69
2022/05/26 02:15:13;;;;;;;6.25;5.65;;;;;;;16.07;100.00;100164.97;4856592;29;20036;-69
2022/05/26 02:17:43;;;;;;;8.43;6.32;;;;;;;16.10;100.00;100162.25;4854965;29;20038;-69
2022/05/26 02:20:26;;;;;;;8.80;6.97;;;;;;;16.05;100.00;100171.91;4841565;29;20117;-69
2022/05/26 02:22:57;;;;;;;9.30;7.88;;;;;;;16.05;100.00;100181.31;4842294;29;20045;-69
2022/05/26 02:25:25;;;;;;;9.52;8.20;;;;;;;15.68;100.00;100184.78;4858535;29;20040;-69
2022/05/26 02:27:53;;;;;;;12.02;8.68;;;;;;;15.59;100.00;100134.75;4841472;29;20052;-69
2022/05/26 02:30:21;;;;;;;9.65;8.55;;;;;;;15.86;100.00;100167.72;4849515;29;20040;-69
2022/05/26 02:32:52;;;;;;;8.93;7.78;;;;;;;16.07;100.00;100194.91;4823612;29;20030;-69
2022/05/26 02:35:31;;;;;;;8.93;7.93;;;;;;;16.08;100.00;100178.63;4824192;29;20041;-69
2022/05/26 02:38:22;;;;;;;8.38;7.38;;;;;;;16.12;100.00;100195.53;4829747;29;20421;-69
2022/05/26 02:40:49;;;;;;;10.40;7.93;;;;;;;15.97;100.00;100180.84;4822589;29;20053;-68
2022/05/26 02:43:33;;;;;;;8.95;8.05;;;;;;;16.01;100.00;100167.81;4833452;29;20045;-69
2022/05/26 02:46:27;;;;;;;11.35;7.93;;;;;;;16.20;100.00;100181.44;4857977;29;20037;-69
2022/05/26 02:49:01;;;;;;;11.35;8.00;;;;;;;15.96;100.00;100198.00;4839843;29;20049;-69
2022/05/26 02:51:44;;;;;;;9.07;8.10;;;;;;;16.15;100.00;100198.78;4842550;29;20046;-69
2022/05/26 02:54:16;;;;;;;11.05;8.20;;;;;;;16.19;100.00;100197.75;4823191;29;20489;-69
2022/05/26 02:56:51;;;;;;;11.38;8.77;;;;;;;16.16;100.00;100212.44;4837967;29;20034;-69
2022/05/26 02:59:39;;;;;;;10.95;7.95;;;;;;;16.15;100.00;100208.22;4838632;29;20029;-69
2022/05/26 03:02:29;;;;;;;11.57;8.45;;;;;;;16.00;100.00;100185.84;4839559;29;20083;-69
2022/05/26 03:05:07;;;;;;;11.18;9.20;;;;;;;15.84;100.00;100185.75;4828225;29;20049;-69
2022/05/26 03:07:35;;;;;;;11.77;8.50;;;;;;;16.01;100.00;100208.03;4857441;29;20044;-69
2022/05/26 03:10:04;;;;;;;11.45;10.30;;;;;;;16.23;100.00;100190.72;4840494;29;20033;-70
2022/05/26 03:12:33;;;;;;;15.20;10.90;;;;;;;15.93;100.00;100207.53;4856980;29;20041;-71
2022/05/26 03:14:59;;;;;;;15.60;11.48;;;;;;;15.83;100.00;100188.34;4839281;29;20033;-69
2022/05/26 03:17:25;;;;;;;14.00;11.38;;;;;;;15.71;100.00;100192.31;4854686;29;20045;-69
2022/05/26 03:19:51;;;;;;;13.40;12.00;;;;;;;15.55;100.00;100163.16;4839613;29;20038;-69
2022/05/26 03:22:16;;;;;;;13.80;11.30;;;;;;;15.56;100.00;100164.81;4826901;29;20041;-70
2022/05/26 03:24:42;;;;;;;11.95;10.63;;;;;;;15.56;100.00;100140.03;4840454;29;20066;-68
2022/05/26 03:27:08;;;;;;;15.35;12.05;;;;;;;15.56;100.00;100154.56;4857135;29;20025;-68
2022/05/26 03:29:34;;;;;;;15.25;11.23;;;;;;;15.71;100.00;100186.38;4839944;29;20440;-68
2022/05/26 03:31:59;;;;;;;12.85;10.70;;;;;;;15.63;100.00;100142.31;4844197;29;20026;-68
2022/05/26 03:42:39;;;;;;;13.02;10.43;;;;;;;16.05;100.00;100153.94;4874934;29;20116;-67
2022/05/26 03:45:07;;;;;;;12.88;10.43;;;;;;;16.33;100.00;100169.69;4858187;29;20570;-68
2022/05/26 03:47:32;;;;;;;13.30;10.45;;;;;;;16.10;100.00;100192.22;4851838;29;20059;-68
2022/05/26 03:49:58;;;;;;;15.52;10.18;;;;;;;16.29;100.00;100150.22;4839554;29;20034;-68
2022/05/26 03:52:23;;;;;;;16.10;10.40;;;;;;;16.54;100.00;100198.63;4849017;29;20213;-67
2022/05/26 03:54:49;;;;;;;12.73;10.10;;;;;;;16.38;100.00;100152.31;4838244;29;20352;-68
2022/05/26 03:57:22;;;;;;;15.68;10.55;;;;;;;16.27;100.00;100220.47;4838784;29;20087;-68
2022/05/26 03:59:47;;;;;;;14.57;10.95;;;;;;;16.11;100.00;100168.22;4838795;29;20037;-69
2022/05/26 04:02:13;;;;;;;14.80;12.18;;;;;;;16.70;100.00;100185.91;4838757;29;20106;-69
2022/05/26 04:04:38;;;;;;;15.07;11.65;;;;;;;16.38;100.00;100188.25;4824034;29;20062;-69
2022/05/26 04:07:04;;;;;;;13.38;11.25;;;;;;;16.60;100.00;100182.13;4824053;29;20044;-68
2022/05/26 04:09:29;;;;;;;12.10;10.75;;;;;;;16.89;100.00;100220.84;4840927;29;20037;-68
2022/05/26 04:11:54;;;;;;;16.40;11.18;;;;;;;17.05;100.00;100202.94;4824184;29;20036;-69
2022/05/26 04:14:20;;;;;;;17.92;10.80;;;;;;;16.77;100.00;100162.41;4824051;29;20037;-67
2022/05/26 04:16:46;;;;;;;13.13;10.65;;;;;;;16.91;100.00;100177.94;4840019;29;20038;-68
2022/05/26 04:19:11;;;;;;;12.73;10.63;;;;;;;17.25;100.00;100207.88;4824193;29;20124;-68
2022/05/26 04:22:14;;;;;;;12.50;11.00;;;;;;;17.06;100.00;100200.28;4823750;29;20038;-68
2022/05/26 04:24:22;;;;;;;12.68;9.57;;;;;;;17.30;100.00;100211.88;4853915;29;20037;-68
2022/05/26 04:26:47;;;;;;;12.75;10.13;;;;;;;17.05;100.00;100226.88;4829624;29;20036;-68
2022/05/26 04:29:15;;;;;;;15.80;9.93;;;;;;;17.17;100.00;100208.25;4852880;29;20508;-68
2022/05/26 04:31:41;;;;;;;11.88;9.95;;;;;;;16.71;100.00;100211.50;4828102;29;20042;-68
2022/05/26 04:34:07;;;;;;;14.68;10.40;;;;;;;16.92;100.00;100189.88;4857449;29;20476;-68
2022/05/26 04:36:32;;;;;;;13.95;10.70;;;;;;;17.42;100.00;100228.41;4835985;29;20038;-68
2022/05/26 04:38:58;;;;;;;13.13;10.73;;;;;;;17.21;100.00;100199.47;4823729;29;20030;-68
2022/05/26 04:41:24;;;;;;;12.52;10.35;;;;;;;17.79;100.00;100228.13;4823667;29;20050;-68
2022/05/26 04:43:50;;;;;;;10.88;9.82;;;;;;;18.03;100.00;100226.81;4832374;29;20044;-68
2022/05/26 04:46:17;;;;;;;16.67;9.75;;;;;;;18.26;100.00;100235.03;4842176;29;20029;-67
2022/05/26 04:48:43;;;;;;;11.57;8.93;;;;;;;18.14;100.00;100250.22;4840757;29;20411;-68
2022/05/26 04:51:09;;;;;;;10.55;9.13;;;;;;;18.22;100.00;100267.84;4824548;29;20113;-68
2022/05/26 04:53:34;;;;;;;12.75;9.05;;;;;;;18.23;100.00;100259.19;4823689;29;20463;-68
2022/05/26 04:56:00;;;;;;;10.50;9.32;;;;;;;18.48;100.00;100272.38;4823378;29;20489;-68
2022/05/26 04:58:25;;;;;;;14.63;9.02;;;;;;;18.67;100.00;100274.78;4852638;29;20037;-68
2022/05/26 05:00:51;;;;;;;17.08;12.30;;;;;;;18.52;100.00;100219.81;4841603;29;20500;-66
2022/05/26 05:03:17;;;;;;;15.45;11.00;;;;;;;18.66;100.00;100237.06;4841132;29;20061;-66
2022/05/26 05:05:43;;;;;;;14.25;10.68;;;;;;;19.14;100.00;100280.63;4857903;29;20539;-67
2022/05/26 05:08:08;;;;;;;13.55;10.68;;;;;;;19.49;100.00;100256.19;4841271;29;20128;-67
2022/05/26 05:10:34;;;;;;;12.50;10.85;;;;;;;19.49;100.00;100286.31;4857792;29;20049;-67
2022/05/26 05:12:59;;;;;;;13.77;9.95;;;;;;;19.68;100.00;100279.97;4852080;29;20037;-67
2022/05/26 05:15:34;;;;;;;12.98;11.18;;;;;;;19.43;100.00;100248.81;4849312;29;20033;-67
2022/05/26 05:17:59;;;;;;;15.27;12.90;;;;;;;19.85;100.00;100284.91;4832942;29;20038;-67
2022/05/26 05:20:25;;;;;;;18.13;15.77;;;;;;;19.21;100.00;100274.19;4832696;29;20376;-67
2022/05/26 05:22:57;;;;;;;23.38;15.80;;;;;;;20.08;100.00;100254.28;4846424;29;20121;-65
2022/05/26 05:25:32;;;;;;;;;;;;;;;20.21;100.00;100281.00;4848135;29;20022;-65
2022/05/26 05:28:04;;;;;;;23.30;19.23;;;;;;;19.77;100.00;100270.81;4846912;29;20018;-68
2022/05/26 05:30:42;;;;;;;18.85;16.85;;;;;;;19.68;100.00;100272.22;4832648;29;20473;-68
2022/05/26 05:33:09;;;;;;;22.30;19.90;;;;;;;19.49;100.00;100281.16;4848739;29;20116;-67
2022/05/26 05:35:48;;;;;;;20.83;17.50;;;;;;;19.48;100.00;100256.28;4830344;29;20042;-67
2022/05/26 05:38:15;;;;;;;22.17;17.80;;;;;;;19.21;100.00;100253.56;4847274;29;20069;-66
2022/05/26 05:40:40;;;;;;;18.77;16.88;;;;;;;19.27;100.00;100236.91;4827795;29;20416;-65
2022/05/26 05:43:06;;;;;;;16.75;15.15;;;;;;;19.61;100.00;100277.84;4846130;29;20089;-65
2022/05/26 05:45:31;;;;;;;17.05;14.75;;;;;;;19.69;100.00;100240.31;4861069;29;20111;-65
2022/05/26 05:47:57;;;;;;;18.13;16.45;;;;;;;19.59;100.00;100241.81;4861205;29;20863;-67
2022/05/26 05:50:22;;;;;;;19.75;16.05;;;;;;;19.82;100.00;100281.69;4844385;29;20037;-66
2022/05/26 05:52:47;;;;;;;16.35;14.65;;;;;;;20.15;100.00;100287.34;4844527;29;20034;-65
2022/05/26 05:55:13;;;;;;;16.38;14.77;;;;;;;20.27;100.00;100275.47;4844493;29;20086;-66
2022/05/26 05:57:39;;;;;;;16.45;14.73;;;;;;;20.60;100.00;100289.66;4844525;29;20029;-67
2022/05/26 06:00:06;;;;;;;16.85;15.15;;;;;;;20.06;100.00;100256.97;4844471;29;20121;-67
2022/05/26 06:02:33;;;;;;;16.33;14.73;;;;;;;20.79;100.00;100285.88;4860741;29;20062;-67
2022/05/26 06:04:58;;;;;;;16.48;14.75;;;;;;;21.51;100.00;100315.47;4860794;29;20052;-68
2022/05/26 06:07:24;;;;;;;17.10;15.40;;;;;;;20.35;100.00;100312.81;4844004;29;20041;-67
2022/05/26 06:09:51;;;;;;;17.58;15.88;;;;;;;20.32;100.00;100307.81;4843982;29;20033;-67
2022/05/26 06:12:17;;;;;;;17.30;15.50;;;;;;;21.03;100.00;100299.81;4844135;29;20086;-65
2022/05/26 06:14:43;;;;;;;18.23;16.17;;;;;;;21.07;100.00;100275.41;4860670;29;20033;-67
2022/05/26 06:17:10;;;;;;;18.17;16.25;;;;;;;20.82;100.00;100311.53;4844122;29;20124;-67
2022/05/26 06:19:38;;;;;;;19.70;17.00;;;;;;;21.23;100.00;100291.59;4843708;29;20033;-67
2022/05/26 06:22:09;;;;;;;21.70;17.75;;;;;;;21.66;100.00;100294.66;4858626;29;20037;-67
2022/05/26 06:24:36;;;;;;;;;;;;;;;21.52;100.00;100313.72;4860517;29;20451;-67
2022/05/26 06:29:49;;;;;;;18.25;16.42;;;;;;;22.39;100.00;100302.41;4840260;29;20370;-67
2022/05/26 06:29:49;;;;;;;21.42;18.90;;;;;;;21.63;100.00;100315.59;4849377;29;20054;-67
2022/05/26 06:37:42;;;;;;;22.10;20.02;;;;;;;21.83;100.00;100300.38;4860418;29;20173;-68
2022/05/26 06:40:08;;;;;;;24.83;22.27;;;;;;;22.13;100.00;100318.97;4843798;29;20524;-65
2022/05/26 06:42:34;;;;;;;27.38;24.45;;;;;;;22.80;100.00;100309.81;4843239;29;20538;-65
2022/05/26 06:44:59;;;;;;;21.88;19.58;;;;;;;23.76;100.00;100300.81;4843663;29;20039;-66
2022/05/26 06:47:26;;;;;;;24.95;22.55;;;;;;;22.32;100.00;100308.13;4860246;29;20581;-66
2022/05/26 06:49:51;;;;;;;29.75;26.40;;;;;;;22.64;100.00;100283.34;4859693;29;20037;-65
2022/05/26 06:52:21;;;;;;;26.70;23.90;;;;;;;23.69;100.00;100303.06;4843450;29;20037;-65
2022/05/26 06:54:47;;;;;;;25.60;23.08;;;;;;;23.15;100.00;100294.25;4859866;29;20037;-65
2022/05/26 06:57:13;;;;;;;23.92;21.42;;;;;;;23.12;100.00;100286.69;4843091;29;20353;-68
2022/05/26 06:59:39;;;;;;;24.23;21.60;;;;;;;23.46;100.00;100316.97;4859914;29;20489;-67
2022/05/26 07:02:07;;;;;;;23.52;21.08;;;;;;;23.93;100.00;100282.97;4860279;29;20092;-65
2022/05/26 07:04:33;;;;;;;22.48;20.15;;;;;;;24.62;100.00;100284.34;4859799;29;20029;-65
2022/05/26 07:06:59;;;;;;;25.45;22.77;;;;;;;24.02;100.00;100310.03;4859885;29;20041;-65
2022/05/26 07:09:25;;;;;;;24.25;21.83;;;;;;;23.49;100.00;100306.38;4859737;29;20049;-65
2022/05/26 07:11:51;;;;;;;27.60;25.10;;;;;;;22.80;100.00;100302.03;4859408;29;20033;-65
2022/05/26 07:14:17;;;;;;;27.30;24.55;;;;;;;23.80;100.00;100302.25;4843315;29;20026;-66
2022/05/26 07:16:44;;;;;;;25.27;22.77;;;;;;;23.46;100.00;100266.81;4860172;29;20044;-69
2022/05/26 07:19:09;;;;;;;25.05;22.45;;;;;;;22.76;100.00;100305.78;4860175;29;20150;-67
2022/05/26 07:21:35;;;;;;;25.17;21.80;;;;;;;22.73;100.00;100300.00;4859897;29;20112;-67
2022/05/26 07:24:00;;;;;;;22.42;20.05;;;;;;;23.50;100.00;100276.84;4859877;29;20034;-67
2022/05/26 07:26:28;;;;;;;26.08;21.20;;;;;;;23.66;100.00;100269.53;4859887;29;20416;-68
2022/05/26 07:28:54;;;;;;;23.50;19.65;;;;;;;25.09;100.00;100319.53;4859966;29;20117;-67
2022/05/26 07:31:20;;;;;;;22.00;18.85;;;;;;;24.35;100.00;100293.56;4842750;29;20120;-67
2022/05/26 07:33:47;;;;;;;20.02;17.92;;;;;;;24.17;100.00;100308.00;4843301;29;20029;-69
2022/05/26 07:41:45;;;;;;;16.90;15.05;;;;;;;25.35;100.00;100323.41;4859207;29;20043;-65
2022/05/26 07:44:11;;;;;;;15.50;13.80;;;;;;;24.67;100.00;100281.38;4842758;29;20098;-66
2022/05/26 07:46:37;;;;;;;17.23;15.13;;;;;;;25.17;100.00;100311.94;4859225;29;20113;-65
2022/05/26 07:49:05;;;;;;;19.42;15.75;;;;;;;25.64;100.00;100313.16;4858876;29;20053;-65
2022/05/26 07:51:31;;;;;;;19.27;16.77;;;;;;;26.23;100.00;100315.84;4853042;29;20041;-66
2022/05/26 07:54:00;;;;;;;22.60;15.95;;;;;;;25.78;100.00;100292.81;4829423;29;20029;-66
2022/05/26 07:56:30;;;;;;;19.98;17.88;;;;;;;24.60;100.00;100281.06;4840368;29;20073;-66
2022/05/26 07:58:55;;;;;;;22.85;19.15;;;;;;;23.84;100.00;100290.66;4840384;29;20038;-66
2022/05/26 08:01:21;;;;;;;21.30;18.23;;;;;;;24.30;100.00;100303.50;4839826;29;20040;-66
2022/05/26 08:03:46;;;;;;;20.35;18.15;;;;;;;25.45;100.00;100305.28;4840246;29;20124;-66
2022/05/26 08:06:13;;;;;;;22.10;19.65;;;;;;;24.78;100.00;100292.59;4840453;29;20117;-66
2022/05/26 08:08:39;;;;;;;21.10;18.98;;;;;;;25.55;100.00;100322.56;4840485;29;20034;-65
2022/05/26 08:11:04;;;;;;;21.17;17.63;;;;;;;26.27;100.00;100314.63;4823551;29;20485;-65
2022/05/26 08:13:30;;;;;;;21.73;17.80;;;;;;;25.60;100.00;100312.59;4849621;29;20040;-65
2022/05/26 08:15:55;;;;;;;19.95;17.83;;;;;;;25.36;100.00;100311.19;4858561;29;20503;-65
2022/05/26 08:18:21;;;;;;;27.30;17.52;;;;;;;26.76;100.00;100311.16;4836880;29;20026;-67
2022/05/26 08:20:46;;;;;;;20.40;17.90;;;;;;;27.14;100.00;100318.94;4840342;29;20405;-66
2022/05/26 08:23:12;;;;;;;22.02;17.63;;;;;;;27.13;100.00;100294.63;4840338;29;20102;-67
2022/05/26 08:25:38;;;;;;;19.90;17.77;;;;;;;27.25;100.00;100318.78;4840142;29;20041;-66
2022/05/26 08:28:04;;;;;;;19.73;17.45;;;;;;;27.51;100.00;100300.75;4840513;29;20048;-66
2022/05/26 08:30:30;;;;;;;19.85;17.30;;;;;;;26.83;100.00;100297.41;4823819;29;20482;-66
2022/05/26 08:32:55;;;;;;;20.30;16.60;;;;;;;27.08;100.00;100278.53;4840300;29;20128;-67
2022/05/26 08:35:22;;;;;;;18.58;16.70;;;;;;;27.15;100.00;100321.44;4839872;29;20033;-67
2022/05/26 08:37:47;;;;;;;21.67;17.45;;;;;;;26.21;100.00;100326.44;4840349;29;20069;-67
2022/05/26 08:40:32;;;;;;;19.77;17.58;;;;;;;26.87;100.00;100324.06;4823741;29;20068;-67
2022/05/26 08:42:58;;;;;;;20.02;17.33;;;;;;;27.13;100.00;100318.13;4840021;29;20026;-67
2022/05/26 08:45:24;;;;;;;22.55;17.60;;;;;;;26.81;100.00;100301.13;4823475;29;20501;-67
2022/05/26 08:47:51;;;;;;;28.02;17.95;;;;;;;26.75;100.00;100293.84;4839803;29;20463;-67
2022/05/26 08:50:27;;;;;;;24.05;18.10;;;;;;;28.48;100.00;100273.94;4838888;29;20030;-64
2022/05/26 08:52:57;;;;;;;20.95;17.27;;;;;;;28.34;100.00;100318.94;4823587;29;20034;-64
2022/05/26 08:55:34;;;;;;;24.10;18.25;;;;;;;27.47;100.00;100317.66;4839819;29;20129;-64
2022/05/26 08:58:07;;;;;;;22.30;18.33;;;;;;;27.55;100.00;100294.25;4830835;29;20036;-66
2022/05/26 09:00:34;;;;;;;20.73;17.67;;;;;;;27.87;100.00;100312.97;4841547;29;20058;-66
2022/05/26 09:03:01;;;;;;;24.00;18.95;;;;;;;27.69;100.00;100322.56;4845895;29;20041;-64
2022/05/26 09:05:37;;;;;;;21.08;18.63;;;;;;;28.93;100.00;100316.56;4858038;29;20084;-64
2022/05/26 09:14:01;;;;;;;22.30;19.80;;;;;;;28.30;100.00;100292.25;4861742;29;20503;-66
2022/05/26 09:16:28;;;;;;;22.67;19.98;;;;;;;27.80;100.00;100290.97;4861565;29;20552;-64
2022/05/26 09:19:17;;;;;;;21.77;19.58;;;;;;;28.69;100.00;100317.19;4844995;29;20037;-64
2022/05/26 09:21:44;;;;;;;22.17;18.60;;;;;;;29.57;100.00;100309.16;4861717;29;20040;-66
2022/05/26 09:24:36;;;;;;;22.48;20.17;;;;;;;29.65;100.00;100306.56;4861588;29;20034;-66
2022/05/26 09:27:06;;;;;;;20.65;18.45;;;;;;;29.95;100.00;100303.44;4836905;29;20045;-65
2022/05/26 09:29:37;;;;;;;22.20;18.35;;;;;;;29.66;100.00;100307.38;4844632;29;20026;-66
2022/05/26 09:32:06;;;;;;;21.25;19.15;;;;;;;28.75;100.00;100316.59;4861421;29;20061;-65
2022/05/26 09:34:34;;;;;;;22.02;19.02;;;;;;;29.65;100.00;100318.88;4855519;29;20041;-64
2022/05/26 09:37:03;;;;;;;22.02;18.42;;;;;;;29.27;100.00;100303.56;4846653;29;20420;-66
2022/05/26 09:39:37;;;;;;;23.30;19.20;;;;;;;29.63;100.00;100318.22;4842724;29;20033;-64
2022/05/26 09:42:26;;;;;;;24.90;19.23;;;;;;;29.49;100.00;100292.56;4846377;29;20029;-76
2022/05/26 09:45:06;;;;;;;24.60;18.30;;;;;;;29.98;100.00;100320.69;4844088;29;20081;-77
2022/05/26 09:47:57;;;;;;;23.25;19.27;;;;;;;29.73;100.00;100311.06;4846583;29;20040;-76
2022/05/26 09:50:31;;;;;;;20.42;18.00;;;;;;;30.20;100.00;100306.97;4843244;29;20042;-76
2022/05/26 09:52:57;;;;;;;18.77;16.88;;;;;;;30.56;100.00;100308.38;4848909;29;20030;-75
2022/05/26 09:55:27;;;;;;;18.50;16.65;;;;;;;30.63;100.00;100308.53;4843450;29;20038;-75
2022/05/26 09:58:08;;;;;;;20.95;16.42;;;;;;;31.24;100.00;100287.84;4844350;29;20034;-75
2022/05/26 10:00:44;;;;;;;14.20;7.05;;;;;;;31.32;72.72;100308.03;4843169;29;20030;-75
2022/05/26 10:03:33;;;;;;;12.80;6.35;;;;;;;31.53;70.84;100300.47;4844122;29;20137;-75
2022/05/26 10:06:02;;;;;;;12.35;6.75;;;;;;;31.84;71.82;100314.47;4827446;29;20034;-75
2022/05/26 10:08:45;;;;;;;13.48;6.93;;;;;;;31.90;68.48;100307.69;4842711;29;20026;-74
2022/05/26 10:11:36;;;;;;;15.52;6.30;;;;;;;32.08;67.86;100318.81;4843074;29;20545;-78
2022/05/26 10:14:04;;;;;;;10.93;6.25;;;;;;;31.52;66.32;100322.47;4519266;29;10000555;-74
2022/05/26 10:17:01;;;;;;;8.63;5.88;;;;;;;31.49;67.38;100314.94;4842528;29;20078;-76
2022/05/26 10:19:56;;;;;;;15.25;6.45;;;;;;;31.90;66.18;100311.16;4859243;29;20038;-76
2022/05/26 10:22:47;;;;;;;12.38;6.15;;;;;;;32.08;67.32;100316.19;4842842;29;20420;-77
2022/05/26 10:25:43;;;;;;;12.77;6.15;;;;;;;32.18;65.63;100314.16;4859423;29;20029;-76
2022/05/26 10:28:40;;;;;;;11.13;6.25;;;;;;;31.98;65.34;100305.06;4860416;29;20037;-77
2022/05/26 10:31:45;;;;;;;11.63;5.72;;;;;;;32.52;64.34;100329.63;4860628;29;20101;-78
2022/05/26 10:34:35;;;;;;;11.82;6.70;;;;;;;32.24;65.25;100322.22;4860654;29;20025;-76
2022/05/26 10:37:23;;;;;;;12.75;6.40;;;;;;;31.88;63.64;100328.94;4860032;29;20042;-77
2022/05/26 10:39:49;;;;;;;11.93;6.40;;;;;;;32.10;64.92;100317.69;4860812;29;20056;-75
2022/05/26 10:43:00;;;;;;;11.93;6.60;;;;;;;32.36;63.19;100320.81;4844233;29;20595;-79
2022/05/26 10:45:38;;;;;;;;;;;;;;;32.56;62.47;100317.75;4803742;29;20065;-78
2022/05/26 10:48:14;;;;;;;9.80;6.20;;;;;;;32.12;61.75;100268.31;4803510;29;19989;-78
2022/05/26 10:50:49;;;;;;;12.38;6.43;;;;;;;31.91;62.21;100301.47;4831398;29;20045;-77
2022/05/26 10:53:41;;;;;;;11.68;5.85;;;;;;;32.64;61.31;100315.88;4859994;29;20030;-78
2022/05/26 10:56:35;;;;;;;9.45;6.57;;;;;;;32.25;61.52;100317.72;4859573;29;20041;-80
2022/05/26 10:59:16;;;;;;;13.15;6.65;;;;;;;31.65;62.39;100295.66;4842892;29;20524;-76
2022/05/26 11:01:48;;;;;;;9.10;5.88;;;;;;;31.91;61.74;100297.00;4852522;29;20106;-78
2022/05/26 11:04:22;;;;;;;10.45;6.32;;;;;;;32.71;60.75;100314.16;4858315;29;20454;-78
2022/05/26 11:06:51;;;;;;;11.25;6.22;;;;;;;32.80;60.58;100310.47;4842245;29;20044;-74
2022/05/26 11:09:47;;;;;;;7.13;5.68;;;;;;;31.99;60.86;100314.63;4841604;29;20037;-76
2022/05/26 11:12:57;;;;;;;11.57;5.80;;;;;;;32.64;57.66;100315.06;4839562;29;20047;-75
2022/05/26 11:19:03;;;;;;;15.95;5.53;;;;;;;32.22;58.48;100302.31;4857466;29;20136;-74
2022/05/26 11:21:30;;;;;;;10.98;5.85;;;;;;;32.46;57.75;100306.63;4841533;29;20093;-75
2022/05/26 11:23:56;;;;;;;9.15;5.72;;;;;;;31.94;58.74;100270.38;4857812;29;20118;-78
2022/05/26 11:26:37;;;;;;;10.93;4.95;;;;;;;32.10;57.17;100298.41;4856414;29;20052;-79
2022/05/26 11:29:18;;;;;;;11.57;5.28;;;;;;;32.33;56.80;100268.47;4850468;29;20066;-79
2022/05/26 11:37:35;;;;;;;10.82;5.50;;;;;;;32.75;57.01;100267.19;4838819;29;20113;-76
2022/05/26 11:40:13;;;;;;;11.15;5.18;;;;;;;32.55;56.98;100287.13;4839261;29;20038;-77
2022/05/26 11:42:47;;;;;;;9.73;4.93;;;;;;;31.80;57.55;100288.66;4837445;29;20100;-78
2022/05/26 11:45:19;;;;;;;12.30;5.25;;;;;;;32.71;57.00;100293.09;4838618;29;20046;-76
2022/05/26 11:47:57;;;;;;;9.43;4.85;;;;;;;32.59;56.93;100291.03;4838369;29;20046;-77
2022/05/26 11:50:25;;;;;;;10.13;5.03;;;;;;;32.43;56.23;100284.88;4838250;29;20030;-78
2022/05/26 11:52:54;;;;;;;12.82;5.75;;;;;;;33.24;56.28;100287.66;4838269;29;20034;-77
2022/05/26 11:55:33;;;;;;;13.07;4.70;;;;;;;32.72;55.95;100241.22;4837395;29;20094;-76
2022/05/26 11:58:37;;;;;;;8.13;4.60;;;;;;;32.81;57.02;100279.66;4838573;29;20030;-76
2022/05/26 12:01:13;;;;;;;8.50;4.85;;;;;;;32.61;55.32;100260.06;4841804;29;20041;-77
2022/05/26 12:03:47;;;;;;;12.02;4.50;;;;;;;32.60;55.23;100274.25;4840580;29;20045;-76
2022/05/26 12:06:15;;;;;;;7.70;4.53;;;;;;;32.90;56.65;100270.69;4841548;29;20029;-75